createdAt,value
2022-12-20T00:01:29.702Z,1.90
2022-12-20T00:03:59.378Z,1.90
2022-12-20T00:06:26.979Z,2.00
2022-12-20T00:08:58.975Z,1.90
2022-12-20T00:11:27.138Z,1.90
2022-12-20T00:13:54.161Z,1.90
2022-12-20T00:16:23.262Z,1.80
2022-12-20T00:18:55.003Z,1.90
2022-12-20T00:21:22.595Z,1.90
2022-12-20T00:23:49.583Z,1.80
2022-12-20T00:26:19.519Z,1.80
2022-12-20T00:28:47.061Z,1.90
2022-12-20T00:31:16.655Z,2.00
2022-12-20T00:33:46.804Z,2.00
2022-12-20T00:36:14.204Z,2.00
2022-12-20T00:38:41.604Z,2.10
2022-12-20T00:41:14.794Z,2.10
2022-12-20T00:43:42.019Z,2.20
2022-12-20T00:46:10.828Z,2.20
2022-12-20T00:48:37.770Z,2.20
2022-12-20T00:51:07.810Z,2.20
2022-12-20T00:53:34.951Z,2.20
2022-12-20T00:56:02.609Z,2.30
2022-12-20T00:58:30.150Z,2.40
2022-12-20T01:00:57.432Z,2.40
2022-12-20T01:03:25.439Z,2.50
2022-12-20T01:05:54.383Z,2.40
2022-12-20T01:08:22.084Z,2.30
2022-12-20T01:11:02.416Z,2.20
2022-12-20T01:13:30.091Z,2.10
2022-12-20T01:15:57.202Z,2.10
2022-12-20T01:18:23.978Z,2.20
2022-12-20T01:21:00.186Z,2.20
2022-12-20T01:23:27.088Z,2.20
2022-12-20T01:25:53.844Z,2.20
2022-12-20T01:28:20.612Z,2.20
2022-12-20T01:30:47.373Z,2.20
2022-12-20T01:33:14.122Z,2.30
2022-12-20T01:35:40.854Z,2.20
2022-12-20T01:38:07.795Z,2.30
2022-12-20T01:40:34.649Z,2.20
2022-12-20T01:43:01.457Z,2.20
2022-12-20T01:45:30.955Z,2.00
2022-12-20T01:48:00.167Z,2.00
2022-12-20T01:50:27.035Z,2.00
2022-12-20T01:52:54.292Z,2.00
2022-12-20T01:55:25.326Z,2.00
2022-12-20T01:58:02.845Z,2.10
2022-12-20T02:00:29.667Z,2.10
2022-12-20T02:03:00.846Z,2.20
2022-12-20T02:05:28.055Z,2.20
2022-12-20T02:07:57.360Z,2.20
2022-12-20T02:10:35.684Z,2.20
2022-12-20T02:13:12.459Z,2.10
2022-12-20T02:15:52.337Z,2.10
2022-12-20T02:18:33.341Z,2.20
2022-12-20T02:21:03.193Z,2.20
2022-12-20T02:23:47.556Z,2.20
2022-12-20T02:26:41.864Z,2.10
2022-12-20T02:29:40.092Z,2.20
2022-12-20T02:32:31.054Z,2.20
2022-12-20T02:34:57.808Z,2.30
2022-12-20T02:37:24.562Z,2.30
2022-12-20T02:39:52.617Z,2.30
2022-12-20T02:42:23.762Z,2.20
2022-12-20T02:45:17.931Z,2.20
2022-12-20T02:47:53.875Z,2.10
2022-12-20T02:50:34.792Z,2.10
2022-12-20T02:53:01.968Z,2.00
2022-12-20T02:55:57.232Z,2.00
2022-12-20T02:58:28.862Z,2.10
2022-12-20T03:00:59.334Z,2.10
2022-12-20T03:03:26.690Z,2.10
2022-12-20T03:05:57.147Z,2.20
2022-12-20T03:08:25.124Z,2.10
2022-12-20T03:10:53.492Z,2.00
2022-12-20T03:13:21.383Z,2.10
2022-12-20T03:15:48.313Z,2.10
2022-12-20T03:18:15.160Z,2.20
2022-12-20T03:20:43.411Z,2.30
2022-12-20T03:23:10.426Z,2.40
2022-12-20T03:25:37.227Z,2.40
2022-12-20T03:28:04.296Z,2.50
2022-12-20T03:30:31.338Z,2.50
2022-12-20T03:32:58.237Z,2.40
2022-12-20T03:35:25.055Z,2.50
2022-12-20T03:37:51.943Z,2.40
2022-12-20T03:40:18.924Z,2.40
2022-12-20T03:42:45.714Z,2.40
2022-12-20T03:45:12.511Z,2.40
2022-12-20T03:47:39.273Z,2.30
2022-12-20T03:50:07.436Z,2.30
2022-12-20T03:52:34.363Z,2.30
2022-12-20T03:55:01.266Z,2.30
2022-12-20T03:57:27.999Z,2.30
2022-12-20T03:59:54.844Z,2.20
2022-12-20T04:02:22.746Z,2.10
2022-12-20T04:04:50.072Z,2.10
2022-12-20T04:07:16.919Z,2.00
2022-12-20T04:09:43.883Z,2.00
2022-12-20T04:12:10.883Z,2.00
2022-12-20T04:14:37.661Z,2.00
2022-12-20T04:17:04.940Z,1.90
2022-12-20T04:19:31.887Z,1.80
2022-12-20T04:22:04.630Z,1.90
2022-12-20T04:24:32.721Z,2.00
2022-12-20T04:27:00.607Z,2.10
2022-12-20T04:29:27.689Z,2.10
2022-12-20T04:31:54.574Z,2.00
2022-12-20T04:34:21.426Z,2.00
2022-12-20T04:36:48.231Z,1.90
2022-12-20T04:39:15.120Z,1.90
2022-12-20T04:41:42.034Z,1.80
2022-12-20T04:44:08.798Z,1.90
2022-12-20T04:46:35.693Z,2.00
2022-12-20T04:49:02.602Z,2.00
2022-12-20T04:51:29.544Z,2.10
2022-12-20T04:53:56.782Z,2.10
2022-12-20T04:56:28.544Z,2.10
2022-12-20T04:58:57.910Z,2.10
2022-12-20T05:01:25.598Z,2.00
2022-12-20T05:03:52.629Z,2.10
2022-12-20T05:06:19.511Z,2.00
2022-12-20T05:08:46.506Z,1.90
2022-12-20T05:11:13.384Z,1.90
2022-12-20T05:13:40.493Z,1.80
2022-12-20T05:16:07.520Z,1.70
2022-12-20T05:18:34.519Z,1.70
2022-12-20T05:21:21.088Z,1.70
2022-12-20T05:24:06.715Z,1.70
2022-12-20T05:26:36.750Z,1.80
2022-12-20T05:29:04.734Z,1.90
2022-12-20T05:31:31.967Z,2.00
2022-12-20T05:33:58.969Z,1.90
2022-12-20T05:36:25.978Z,1.70
2022-12-20T05:38:55.484Z,1.60
2022-12-20T05:41:26.994Z,1.50
2022-12-20T05:43:53.794Z,1.40
2022-12-20T05:46:20.845Z,1.40
2022-12-20T05:48:47.683Z,1.50
2022-12-20T05:51:14.659Z,1.60
2022-12-20T05:53:41.435Z,1.60
2022-12-20T05:56:08.353Z,1.60
2022-12-20T05:58:35.183Z,1.50
2022-12-20T06:01:04.245Z,1.40
2022-12-20T06:03:31.277Z,1.30
2022-12-20T06:05:58.211Z,1.40
2022-12-20T06:08:25.269Z,1.60
2022-12-20T06:10:52.195Z,1.60
2022-12-20T06:13:19.441Z,1.70
2022-12-20T06:15:46.308Z,1.70
2022-12-20T06:18:13.800Z,1.60
2022-12-20T06:20:40.655Z,1.60
2022-12-20T06:23:07.650Z,1.80
2022-12-20T06:25:34.459Z,1.80
2022-12-20T06:28:01.684Z,1.90
2022-12-20T06:30:33.573Z,1.80
2022-12-20T06:33:01.999Z,1.70
2022-12-20T06:35:29.619Z,1.70
2022-12-20T06:37:57.156Z,1.70
2022-12-20T06:40:24.226Z,1.70
2022-12-20T06:42:51.052Z,1.90
2022-12-20T06:45:18.224Z,2.00
2022-12-20T06:47:45.070Z,2.00
2022-12-20T06:50:11.894Z,1.90
2022-12-20T06:52:38.653Z,1.90
2022-12-20T06:55:05.893Z,1.80
2022-12-20T06:57:33.152Z,1.80
2022-12-20T07:00:00.028Z,1.80
2022-12-20T07:02:27.932Z,1.90
2022-12-20T07:04:55.321Z,2.00
2022-12-20T07:07:22.296Z,2.10
2022-12-20T07:09:49.156Z,2.20
2022-12-20T07:12:16.353Z,2.20
2022-12-20T07:14:43.094Z,2.20
2022-12-20T07:17:10.931Z,2.20
2022-12-20T07:19:37.717Z,2.10
2022-12-20T07:22:05.649Z,2.20
2022-12-20T07:24:33.420Z,2.10
2022-12-20T07:27:01.102Z,2.20
2022-12-20T07:29:28.345Z,2.10
2022-12-20T07:31:55.188Z,2.20
2022-12-20T07:34:22.230Z,2.10
2022-12-20T07:36:49.112Z,2.20
2022-12-20T07:39:15.990Z,2.50
2022-12-20T07:41:42.805Z,2.60
2022-12-20T07:44:09.610Z,2.50
2022-12-20T07:46:36.538Z,2.60
2022-12-20T07:49:03.970Z,2.60
2022-12-20T07:51:38.371Z,2.60
2022-12-20T07:54:11.975Z,2.70
2022-12-20T07:56:42.793Z,2.80
2022-12-20T07:59:12.589Z,2.90
2022-12-20T08:01:42.489Z,3.00
2022-12-20T08:04:15.282Z,3.00
2022-12-20T08:06:42.947Z,3.00
2022-12-20T08:09:14.961Z,2.90
2022-12-20T08:11:44.535Z,2.90
2022-12-20T08:14:12.065Z,3.00
2022-12-20T08:16:39.345Z,3.00
2022-12-20T08:19:06.179Z,3.00
2022-12-20T08:21:32.925Z,3.20
2022-12-20T08:23:59.704Z,3.30
2022-12-20T08:26:27.605Z,3.40
2022-12-20T08:28:55.317Z,3.50
2022-12-20T08:31:22.309Z,3.70
2022-12-20T08:33:49.145Z,3.60
2022-12-20T08:36:15.964Z,3.50
2022-12-20T08:38:42.766Z,3.60
2022-12-20T08:41:14.916Z,3.50
2022-12-20T08:43:42.886Z,3.50
2022-12-20T08:46:11.266Z,3.60
2022-12-20T08:48:38.465Z,3.60
2022-12-20T08:51:07.930Z,3.60
2022-12-20T08:53:35.490Z,3.70
2022-12-20T08:56:16.859Z,3.80
2022-12-20T08:58:45.030Z,3.80
2022-12-20T09:01:18.114Z,3.90
2022-12-20T09:03:45.925Z,4.00
2022-12-20T09:06:16.458Z,3.90
2022-12-20T09:08:43.264Z,3.90
2022-12-20T09:11:12.207Z,3.90
2022-12-20T09:13:44.059Z,3.90
2022-12-20T09:16:13.870Z,4.00
2022-12-20T09:18:40.779Z,4.10
2022-12-20T09:21:08.360Z,4.30
2022-12-20T09:23:36.369Z,4.40
2022-12-20T09:26:12.802Z,4.40
2022-12-20T09:28:39.933Z,4.50
2022-12-20T09:31:11.574Z,4.50
2022-12-20T09:33:38.680Z,4.60
2022-12-20T09:36:06.011Z,4.60
2022-12-20T09:38:32.846Z,4.60
2022-12-20T09:41:03.885Z,4.70
2022-12-20T09:43:31.960Z,4.60
2022-12-20T09:46:00.954Z,4.50
2022-12-20T09:48:39.205Z,4.50
2022-12-20T09:51:37.672Z,4.40
2022-12-20T09:54:28.746Z,4.20
2022-12-20T09:57:17.119Z,4.10
2022-12-20T09:59:49.305Z,4.00
2022-12-20T10:05:38.782Z,4.00
2022-12-20T10:08:22.045Z,3.90
2022-12-20T10:11:40.749Z,3.80
2022-12-20T10:14:34.931Z,4.00
2022-12-20T10:17:19.567Z,4.10
2022-12-20T10:20:08.709Z,4.30
2022-12-20T10:22:46.545Z,4.30
2022-12-20T10:25:16.278Z,4.40
2022-12-20T10:27:44.701Z,4.50
2022-12-20T10:30:21.709Z,4.60
2022-12-20T10:32:51.455Z,4.50
2022-12-20T10:35:41.300Z,4.50
2022-12-20T10:38:13.871Z,4.50
2022-12-20T10:41:19.976Z,4.60
2022-12-20T10:44:05.940Z,4.70
2022-12-20T10:46:47.626Z,4.70
2022-12-20T10:49:28.682Z,4.60
2022-12-20T10:51:59.138Z,4.70
2022-12-20T10:54:37.480Z,4.90
2022-12-20T10:57:25.235Z,5.10
2022-12-20T10:59:56.313Z,5.10
2022-12-20T11:02:40.102Z,5.20
2022-12-20T11:05:11.502Z,5.20
2022-12-20T11:08:33.665Z,5.00
2022-12-20T11:10:39.851Z,5.00
2022-12-20T11:13:06.869Z,5.10
2022-12-20T11:15:36.704Z,5.00
2022-12-20T11:18:19.805Z,5.00
2022-12-20T11:20:58.589Z,5.00
2022-12-20T11:24:04.170Z,5.00
2022-12-20T11:26:50.135Z,4.80
2022-12-20T11:30:01.918Z,4.70
2022-12-20T11:32:49.158Z,4.80
2022-12-20T11:35:25.249Z,4.80
2022-12-20T11:38:13.025Z,4.80
2022-12-20T11:40:53.397Z,5.00
2022-12-20T11:44:15.893Z,5.10
2022-12-20T11:46:43.259Z,5.10
2022-12-20T11:49:22.108Z,5.10
2022-12-20T11:52:10.880Z,5.00
2022-12-20T11:54:47.799Z,5.10
2022-12-20T11:57:26.560Z,5.10
2022-12-20T12:00:02.887Z,5.20
2022-12-20T12:02:44.974Z,5.10
2022-12-20T12:05:43.630Z,5.10
2022-12-20T12:08:30.030Z,5.10
2022-12-20T12:11:02.807Z,5.20
2022-12-20T12:13:35.206Z,5.20
2022-12-20T12:16:09.697Z,5.20
2022-12-20T12:18:38.561Z,5.20
2022-12-20T12:21:09.614Z,5.30
2022-12-20T12:23:55.588Z,5.40
2022-12-20T12:26:34.719Z,5.50
2022-12-20T12:29:08.807Z,5.60
2022-12-20T12:31:38.843Z,5.70
2022-12-20T12:34:26.510Z,5.70
2022-12-20T12:36:56.255Z,5.60
2022-12-20T12:39:25.830Z,5.40
2022-12-20T12:42:22.976Z,5.50
2022-12-20T12:45:07.877Z,5.50
2022-12-20T12:47:53.629Z,5.40
2022-12-20T12:50:35.008Z,5.50
2022-12-20T12:53:08.895Z,5.50
2022-12-20T12:55:39.212Z,5.40
2022-12-20T12:58:32.360Z,5.50
2022-12-20T13:00:59.114Z,5.50
2022-12-20T13:03:49.721Z,5.70
2022-12-20T13:06:25.813Z,5.70
2022-12-20T13:09:04.453Z,5.80
2022-12-20T13:11:33.151Z,5.70
2022-12-20T13:14:18.290Z,5.70
2022-12-20T13:17:11.332Z,5.70
2022-12-20T13:19:35.870Z,5.70
2022-12-20T13:22:17.568Z,5.80
2022-12-20T13:24:50.750Z,5.80
2022-12-20T13:27:41.669Z,5.80
2022-12-20T13:30:11.687Z,5.80
2022-12-20T13:32:47.885Z,6.00
2022-12-20T13:35:29.681Z,6.00
2022-12-20T13:38:06.469Z,5.90
2022-12-20T13:40:43.652Z,5.90
2022-12-20T13:43:42.232Z,5.90
2022-12-20T13:46:13.369Z,5.80
2022-12-20T13:48:52.697Z,5.80
2022-12-20T13:51:29.354Z,5.70
2022-12-20T13:54:03.011Z,5.80
2022-12-20T13:56:51.566Z,5.80
2022-12-20T13:59:27.313Z,5.90
2022-12-20T14:01:57.820Z,6.10
2022-12-20T14:04:27.661Z,6.10
2022-12-20T14:06:59.973Z,6.20
2022-12-20T14:09:38.369Z,6.20
2022-12-20T14:12:18.014Z,6.10
2022-12-20T14:14:51.627Z,6.00
2022-12-20T14:17:27.318Z,6.00
2022-12-20T14:20:16.789Z,6.00
2022-12-20T14:23:02.496Z,6.10
2022-12-20T14:25:36.616Z,6.20
2022-12-20T14:28:04.501Z,6.20
2022-12-20T14:30:36.600Z,6.30
2022-12-20T14:33:03.645Z,6.40
2022-12-20T14:35:30.589Z,6.10
2022-12-20T14:38:00.197Z,5.90
2022-12-20T14:40:28.358Z,5.90
2022-12-20T14:42:55.577Z,5.70
2022-12-20T14:45:28.229Z,5.60
2022-12-20T14:48:03.100Z,5.60
2022-12-20T14:50:43.050Z,5.40
2022-12-20T14:53:22.962Z,5.30
2022-12-20T14:55:49.908Z,5.40
2022-12-20T14:58:33.156Z,5.40
2022-12-20T15:01:21.120Z,5.40
2022-12-20T15:03:59.662Z,5.30
2022-12-20T15:06:37.451Z,5.40
2022-12-20T15:09:05.410Z,5.50
2022-12-20T15:11:34.528Z,5.60
2022-12-20T15:14:01.753Z,5.50
2022-12-20T15:16:29.779Z,5.50
2022-12-20T15:18:59.284Z,5.40
2022-12-20T15:21:36.191Z,5.20
2022-12-20T15:24:08.800Z,5.10
2022-12-20T15:26:36.872Z,5.00
2022-12-20T15:29:04.423Z,4.90
2022-12-20T15:31:34.391Z,4.80
2022-12-20T15:34:13.158Z,4.80
2022-12-20T15:36:39.960Z,4.70
2022-12-20T15:39:14.697Z,4.60
2022-12-20T15:41:46.331Z,4.40
2022-12-20T15:44:16.335Z,4.30
2022-12-20T15:46:44.508Z,4.30
2022-12-20T15:49:23.201Z,4.50
2022-12-20T15:51:51.476Z,4.60
2022-12-20T15:54:31.537Z,4.50
2022-12-20T15:57:03.784Z,4.50
2022-12-20T16:02:25.179Z,4.60
2022-12-20T16:04:53.337Z,4.50
2022-12-20T16:07:20.227Z,4.40
2022-12-20T16:09:47.067Z,4.60
2022-12-20T16:12:21.337Z,4.50
2022-12-20T16:14:48.275Z,4.30
2022-12-20T16:17:16.288Z,4.20
2022-12-20T16:19:43.984Z,4.10
2022-12-20T16:22:22.612Z,4.30
2022-12-20T16:24:50.060Z,4.30
2022-12-20T16:27:17.142Z,4.20
2022-12-20T16:29:43.994Z,4.20
2022-12-20T16:32:19.071Z,4.30
2022-12-20T16:34:46.447Z,4.30
2022-12-20T16:37:13.503Z,4.20
2022-12-20T16:39:41.135Z,4.20
2022-12-20T16:42:22.448Z,4.20
2022-12-20T16:44:53.776Z,4.30
2022-12-20T16:47:21.119Z,4.20
2022-12-20T16:49:52.792Z,4.20
2022-12-20T16:52:22.293Z,4.10
2022-12-20T16:54:49.783Z,4.10
2022-12-20T16:57:16.568Z,4.00
2022-12-20T16:59:43.389Z,4.00
2022-12-20T17:02:23.176Z,4.10
2022-12-20T17:04:51.193Z,4.20
2022-12-20T17:07:18.010Z,4.30
2022-12-20T17:09:44.756Z,4.40
2022-12-20T17:12:20.287Z,4.40
2022-12-20T17:14:47.451Z,4.30
2022-12-20T17:17:14.814Z,4.30
2022-12-20T17:19:41.711Z,4.40
2022-12-20T17:24:56.564Z,4.40
2022-12-20T17:27:23.428Z,4.40
2022-12-20T17:29:50.719Z,4.30
2022-12-20T17:32:21.191Z,4.40
2022-12-20T17:34:48.138Z,4.30
2022-12-20T17:37:15.063Z,4.30
2022-12-20T17:39:41.788Z,4.20
2022-12-20T17:42:13.871Z,4.20
2022-12-20T17:44:40.690Z,4.20
2022-12-20T17:47:07.601Z,4.20
2022-12-20T17:49:34.414Z,4.20
2022-12-20T17:52:01.222Z,4.20
2022-12-20T17:54:33.500Z,4.10
2022-12-20T17:57:03.735Z,4.20
2022-12-20T17:59:30.662Z,4.10
2022-12-20T18:01:57.736Z,4.10
2022-12-20T18:04:24.800Z,4.20
2022-12-20T18:06:53.994Z,4.20
2022-12-20T18:09:21.928Z,4.20
2022-12-20T18:11:49.097Z,4.10
2022-12-20T18:14:16.808Z,4.10
2022-12-20T18:16:43.730Z,3.90
2022-12-20T18:19:17.900Z,3.80
2022-12-20T18:21:45.127Z,3.80
2022-12-20T18:24:13.485Z,3.90
2022-12-20T18:26:40.748Z,3.90
2022-12-20T18:29:07.740Z,3.80
2022-12-20T18:31:34.948Z,3.80
2022-12-20T18:34:02.706Z,3.70
2022-12-20T18:36:32.142Z,3.80
2022-12-20T18:39:00.276Z,3.80
2022-12-20T18:41:30.061Z,3.80
2022-12-20T18:44:01.622Z,3.90
2022-12-20T18:46:29.185Z,4.00
2022-12-20T18:48:59.012Z,4.10
2022-12-20T18:51:28.875Z,4.00
2022-12-20T18:53:57.197Z,4.10
2022-12-20T18:56:29.503Z,4.20
2022-12-20T18:58:57.410Z,4.20
2022-12-20T19:01:27.261Z,4.30
2022-12-20T19:03:55.423Z,4.30
2022-12-20T19:06:23.501Z,4.30
2022-12-20T19:08:50.315Z,4.20
2022-12-20T19:11:19.804Z,4.10
2022-12-20T19:13:47.249Z,4.00
2022-12-20T19:16:23.676Z,3.90
2022-12-20T19:18:51.334Z,3.90
2022-12-20T19:21:24.175Z,3.90
2022-12-20T19:23:53.109Z,3.90
2022-12-20T19:26:22.557Z,4.00
2022-12-20T19:28:49.891Z,4.00
2022-12-20T19:31:28.814Z,4.00
2022-12-20T19:33:58.439Z,3.80
2022-12-20T19:36:37.080Z,3.80
2022-12-20T19:39:05.404Z,3.90
2022-12-20T19:41:34.249Z,3.90
2022-12-20T19:44:01.218Z,3.90
2022-12-20T19:46:29.982Z,3.90
2022-12-20T19:48:58.866Z,3.90
2022-12-20T19:51:26.629Z,3.80
2022-12-20T19:53:55.042Z,3.90
2022-12-20T19:56:25.180Z,3.90
2022-12-20T19:58:52.740Z,4.10
2022-12-20T20:01:21.379Z,4.10
2022-12-20T20:03:48.698Z,4.00
2022-12-20T20:06:15.495Z,3.90
2022-12-20T20:08:42.561Z,3.80
2022-12-20T20:11:11.091Z,3.80
2022-12-20T20:13:38.989Z,4.00
2022-12-20T20:16:07.235Z,4.10
2022-12-20T20:18:35.761Z,4.10
2022-12-20T20:21:17.927Z,4.20
2022-12-20T20:23:44.828Z,4.10
2022-12-20T20:26:15.397Z,4.00
2022-12-20T20:28:44.824Z,3.80
2022-12-20T20:31:13.807Z,3.90
2022-12-20T20:33:41.508Z,4.00
2022-12-20T20:36:08.991Z,3.90
2022-12-20T20:38:35.864Z,3.90
2022-12-20T20:41:02.648Z,4.10
2022-12-20T20:43:30.068Z,4.10
2022-12-20T20:45:56.991Z,4.10
2022-12-20T20:48:24.110Z,4.10
2022-12-20T20:50:50.920Z,4.20
2022-12-20T20:53:17.669Z,4.20
2022-12-20T20:55:44.386Z,4.30
2022-12-20T20:58:11.112Z,4.20
2022-12-20T21:00:38.027Z,4.20
2022-12-20T21:03:05.488Z,4.20
2022-12-20T21:06:14.086Z,4.30
2022-12-20T21:08:21.816Z,4.30
2022-12-20T21:10:49.925Z,4.10
2022-12-20T21:13:17.066Z,4.10
2022-12-20T21:15:44.555Z,4.00
2022-12-20T21:18:12.325Z,4.10
2022-12-20T21:20:39.605Z,4.20
2022-12-20T21:23:06.885Z,4.30
2022-12-20T21:25:33.652Z,4.40
2022-12-20T21:28:00.530Z,4.50
2022-12-20T21:30:27.331Z,4.60
2022-12-20T21:32:54.121Z,4.60
2022-12-20T21:35:21.280Z,4.70
2022-12-20T21:37:48.159Z,4.70
2022-12-20T21:40:15.300Z,4.60
2022-12-20T21:42:42.053Z,4.60
2022-12-20T21:45:11.949Z,4.70
2022-12-20T21:47:38.952Z,4.70
2022-12-20T21:50:06.480Z,4.80
2022-12-20T21:52:33.250Z,4.80
2022-12-20T21:55:03.065Z,4.80
2022-12-20T21:57:29.970Z,4.80
2022-12-20T21:59:57.062Z,4.90
2022-12-20T22:02:23.952Z,4.90
2022-12-20T22:04:50.799Z,4.90
2022-12-20T22:07:17.585Z,4.90
2022-12-20T22:09:44.463Z,4.90
2022-12-20T22:12:11.323Z,4.80
2022-12-20T22:14:38.061Z,4.70
2022-12-20T22:17:04.806Z,4.60
2022-12-20T22:19:31.552Z,4.70
2022-12-20T22:21:58.851Z,4.60
2022-12-20T22:24:25.806Z,4.50
2022-12-20T22:26:52.644Z,4.40
2022-12-20T22:29:20.272Z,4.40
2022-12-20T22:31:47.111Z,4.60
2022-12-20T22:34:16.760Z,4.70
2022-12-20T22:36:43.799Z,4.70
2022-12-20T22:39:10.603Z,4.80
2022-12-20T22:41:37.400Z,4.80
2022-12-20T22:44:04.342Z,4.90
2022-12-20T22:46:31.539Z,4.90
2022-12-20T22:48:59.332Z,4.90
2022-12-20T22:51:27.847Z,4.70
2022-12-20T22:53:55.145Z,4.60
2022-12-20T22:56:21.906Z,4.50
2022-12-20T22:58:49.257Z,4.60
2022-12-20T23:01:18.895Z,4.70
2022-12-20T23:03:46.568Z,4.70
2022-12-20T23:06:16.110Z,4.70
2022-12-20T23:08:43.462Z,4.80
2022-12-20T23:11:36.761Z,4.70
2022-12-20T23:14:23.528Z,4.50
2022-12-20T23:16:50.817Z,4.20
2022-12-20T23:19:17.619Z,4.20
2022-12-20T23:22:03.268Z,4.30
2022-12-20T23:24:30.159Z,4.30
2022-12-20T23:26:57.153Z,4.30
2022-12-20T23:29:24.015Z,4.40
2022-12-20T23:31:51.074Z,4.50
2022-12-20T23:34:17.878Z,4.40
2022-12-20T23:36:44.645Z,4.50
2022-12-20T23:39:11.478Z,4.60
2022-12-20T23:41:38.195Z,4.60
2022-12-20T23:44:06.619Z,4.70
2022-12-20T23:46:34.374Z,4.70
2022-12-20T23:49:01.229Z,4.70
2022-12-20T23:51:27.986Z,4.50
2022-12-20T23:53:54.731Z,4.40
2022-12-20T23:56:22.248Z,4.40
2022-12-20T23:58:53.949Z,4.50
